createdAt,value
2019-04-16T00:01:44.515Z,48.40
2019-04-16T00:04:30.436Z,48.40
2019-04-16T00:07:04.250Z,48.50
2019-04-16T00:09:47.332Z,48.40
2019-04-16T00:12:21.241Z,48.40
2019-04-16T00:14:52.544Z,48.40
2019-04-16T00:17:21.982Z,48.40
2019-04-16T00:19:51.527Z,48.40
2019-04-16T00:22:22.612Z,48.50
2019-04-16T00:24:52.045Z,48.70
2019-04-16T00:27:21.582Z,48.80
2019-04-16T00:29:51.263Z,48.80
2019-04-16T00:32:22.409Z,48.90
2019-04-16T00:34:51.755Z,49.10
2019-04-16T00:37:21.614Z,49.10
2019-04-16T00:39:55.547Z,49.20
2019-04-16T00:42:22.278Z,49.30
2019-04-16T00:44:51.795Z,49.50
2019-04-16T00:47:21.283Z,49.80
2019-04-16T00:49:50.689Z,50.00
2019-04-16T00:52:20.083Z,50.20
2019-04-16T00:54:49.495Z,50.30
2019-04-16T00:57:18.841Z,50.50
2019-04-16T00:59:49.330Z,50.70
2019-04-16T01:02:18.702Z,50.80
2019-04-16T01:04:48.158Z,50.60
2019-04-16T01:07:17.601Z,50.60
2019-04-16T01:09:47.007Z,50.60
2019-04-16T01:12:16.446Z,50.90
2019-04-16T01:14:45.901Z,50.90
2019-04-16T01:17:15.284Z,51.00
2019-04-16T01:19:44.671Z,50.90
2019-04-16T01:22:16.027Z,51.00
2019-04-16T01:24:45.099Z,51.40
2019-04-16T01:27:14.501Z,51.50
2019-04-16T01:29:43.931Z,51.40
2019-04-16T01:32:14.998Z,51.30
2019-04-16T01:34:48.831Z,51.30
2019-04-16T01:37:25.508Z,51.10
2019-04-16T01:40:02.873Z,51.20
2019-04-16T01:42:31.902Z,51.20
2019-04-16T01:45:01.218Z,51.20
2019-04-16T01:47:33.329Z,51.20
2019-04-16T01:50:01.638Z,51.30
2019-04-16T01:52:31.091Z,51.50
2019-04-16T01:55:00.598Z,51.50
2019-04-16T01:57:30.727Z,51.40
2019-04-16T02:00:00.889Z,51.40
2019-04-16T02:02:30.648Z,51.40
2019-04-16T02:05:00.096Z,51.40
2019-04-16T02:07:29.638Z,51.60
2019-04-16T02:09:59.095Z,51.70
2019-04-16T02:12:28.557Z,51.80
2019-04-16T02:14:59.005Z,51.90
2019-04-16T02:17:28.452Z,51.90
2019-04-16T02:19:57.905Z,51.90
2019-04-16T02:22:27.303Z,51.80
2019-04-16T02:24:56.752Z,51.60
2019-04-16T02:27:26.453Z,51.60
2019-04-16T02:29:58.602Z,51.60
2019-04-16T02:32:27.526Z,51.60
2019-04-16T02:34:56.942Z,51.80
2019-04-16T02:37:26.401Z,52.10
2019-04-16T02:39:55.767Z,52.10
2019-04-16T02:42:30.672Z,52.10
2019-04-16T02:44:56.220Z,52.40
2019-04-16T02:47:25.669Z,52.80
2019-04-16T02:49:56.794Z,52.00
2019-04-16T02:52:31.568Z,52.00
2019-04-16T02:55:08.128Z,52.50
2019-04-16T02:57:50.420Z,52.60
2019-04-16T03:00:27.502Z,52.30
2019-04-16T03:02:58.646Z,52.10
2019-04-16T03:05:32.479Z,52.10
2019-04-16T03:08:04.821Z,52.00
2019-04-16T03:10:44.679Z,52.10
2019-04-16T03:13:15.818Z,52.60
2019-04-16T03:15:47.038Z,53.10
2019-04-16T03:18:18.183Z,53.00
2019-04-16T03:20:47.641Z,52.80
2019-04-16T03:23:17.017Z,52.90
2019-04-16T03:25:47.555Z,53.10
2019-04-16T03:28:16.998Z,53.10
2019-04-16T03:30:46.532Z,53.40
2019-04-16T03:33:16.525Z,53.70
2019-04-16T03:35:46.130Z,53.80
2019-04-16T03:38:15.982Z,53.80
2019-04-16T03:40:45.346Z,53.80
2019-04-16T03:43:14.802Z,54.10
2019-04-16T03:45:44.256Z,54.40
2019-04-16T03:48:13.787Z,54.50
2019-04-16T03:50:43.242Z,54.50
2019-04-16T03:53:16.325Z,54.50
2019-04-16T03:55:43.687Z,54.50
2019-04-16T03:58:13.130Z,54.60
2019-04-16T04:00:44.082Z,54.60
2019-04-16T04:03:13.668Z,54.70
2019-04-16T04:05:44.730Z,54.70
2019-04-16T04:08:17.394Z,54.70
2019-04-16T04:10:45.179Z,54.80
2019-04-16T04:13:17.700Z,54.80
2019-04-16T04:15:45.779Z,54.90
2019-04-16T04:18:15.709Z,55.00
2019-04-16T04:20:49.646Z,55.00
2019-04-16T04:23:17.007Z,55.10
2019-04-16T04:25:47.386Z,55.20
2019-04-16T04:28:19.612Z,55.30
2019-04-16T04:30:48.994Z,55.40
2019-04-16T04:33:41.955Z,55.50
2019-04-16T04:36:10.394Z,55.60
2019-04-16T04:38:39.979Z,56.00
2019-04-16T04:41:23.452Z,55.90
2019-04-16T04:43:52.939Z,56.00
2019-04-16T04:46:22.468Z,56.40
2019-04-16T04:48:55.065Z,55.90
2019-04-16T04:51:22.990Z,55.90
2019-04-16T04:53:52.443Z,55.80
2019-04-16T04:56:21.899Z,55.50
2019-04-16T04:58:51.355Z,55.40
2019-04-16T05:01:20.807Z,55.20
2019-04-16T05:04:02.202Z,55.00
2019-04-16T05:06:36.511Z,54.70
2019-04-16T05:09:06.914Z,54.60
2019-04-16T05:11:36.676Z,54.40
2019-04-16T05:14:06.129Z,54.20
2019-04-16T05:16:35.662Z,54.10
2019-04-16T05:19:05.117Z,54.10
2019-04-16T05:21:34.544Z,54.00
2019-04-16T05:24:03.964Z,53.90
2019-04-16T05:26:33.522Z,53.60
2019-04-16T05:29:17.432Z,53.60
2019-04-16T05:31:44.487Z,53.50
2019-04-16T05:34:17.432Z,53.30
2019-04-16T05:36:47.762Z,53.00
2019-04-16T05:39:16.056Z,52.80
2019-04-16T05:41:45.797Z,52.60
2019-04-16T05:44:16.222Z,52.50
2019-04-16T05:46:46.842Z,52.40
2019-04-16T05:49:16.542Z,52.00
2019-04-16T05:51:46.072Z,51.80
2019-04-16T05:54:23.156Z,51.70
2019-04-16T05:56:55.494Z,51.70
2019-04-16T05:59:25.419Z,51.60
2019-04-16T06:02:02.477Z,51.40
2019-04-16T06:04:32.203Z,51.40
2019-04-16T06:07:04.819Z,51.00
2019-04-16T06:09:32.600Z,50.80
2019-04-16T06:12:01.983Z,50.70
2019-04-16T06:14:38.788Z,50.40
2019-04-16T06:17:31.781Z,50.00
2019-04-16T06:20:20.519Z,49.60
2019-04-16T06:22:50.303Z,49.30
2019-04-16T06:25:30.045Z,49.20
2019-04-16T06:28:10.237Z,49.00
2019-04-16T06:30:50.112Z,49.00
2019-04-16T06:33:25.212Z,48.80
2019-04-16T06:36:11.542Z,48.60
2019-04-16T06:38:51.950Z,48.70
2019-04-16T06:41:40.821Z,48.60
2019-04-16T06:44:03.949Z,48.80
2019-04-16T06:46:39.768Z,48.80
2019-04-16T06:49:19.179Z,48.90
2019-04-16T06:51:56.047Z,48.90
2019-04-16T06:54:45.456Z,48.80
2019-04-16T06:57:16.052Z,48.60
2019-04-16T06:59:53.455Z,48.60
2019-04-16T07:02:27.612Z,48.50
2019-04-16T07:05:01.201Z,48.60
2019-04-16T07:07:39.875Z,48.50
2019-04-16T07:10:09.895Z,48.40
2019-04-16T07:12:39.404Z,48.40
2019-04-16T07:15:09.054Z,47.70
2019-04-16T07:17:40.448Z,47.30
2019-04-16T07:20:13.614Z,47.10
2019-04-16T07:22:42.084Z,46.80
2019-04-16T07:25:11.627Z,46.70
2019-04-16T07:27:45.438Z,45.90
2019-04-16T07:30:39.261Z,45.50
2019-04-16T07:33:27.890Z,45.20
2019-04-16T07:36:15.346Z,44.80
2019-04-16T07:38:52.717Z,44.30
2019-04-16T07:41:29.391Z,43.80
2019-04-16T07:44:07.816Z,43.40
2019-04-16T07:46:52.347Z,42.90
2019-04-16T07:49:27.076Z,42.80
2019-04-16T07:51:58.284Z,42.20
2019-04-16T07:54:48.335Z,42.80
2019-04-16T07:57:17.720Z,42.60
2019-04-16T07:59:47.103Z,42.10
2019-04-16T08:02:21.152Z,42.60
2019-04-16T08:04:48.948Z,42.10
2019-04-16T08:07:20.454Z,41.30
2019-04-16T08:09:50.199Z,41.30
2019-04-16T08:12:30.437Z,41.00
2019-04-16T08:15:13.876Z,40.90
2019-04-16T08:17:42.434Z,40.60
2019-04-16T08:20:30.448Z,40.20
2019-04-16T08:23:38.771Z,39.70
2019-04-16T08:26:18.998Z,39.70
2019-04-16T08:29:08.210Z,39.20
2019-04-16T08:31:44.484Z,38.80
2019-04-16T08:34:23.871Z,38.70
2019-04-16T08:36:55.614Z,38.30
2019-04-16T08:39:31.008Z,37.60
2019-04-16T08:42:01.866Z,37.10
2019-04-16T08:44:35.295Z,37.10
2019-04-16T08:47:04.210Z,36.60
2019-04-16T08:49:34.231Z,36.80
2019-04-16T08:52:09.878Z,36.40
2019-04-16T08:54:38.081Z,36.40
2019-04-16T08:57:08.413Z,36.30
2019-04-16T08:59:39.556Z,36.10
2019-04-16T09:02:09.677Z,35.90
2019-04-16T09:04:43.011Z,36.10
2019-04-16T09:07:19.617Z,36.60
2019-04-16T09:09:56.960Z,35.90
2019-04-16T09:12:27.300Z,35.60
2019-04-16T09:14:58.908Z,35.60
2019-04-16T09:17:30.561Z,35.10
2019-04-16T09:20:05.656Z,34.70
2019-04-16T09:22:48.231Z,34.80
2019-04-16T09:25:15.603Z,34.40
2019-04-16T09:27:47.673Z,33.90
2019-04-16T09:30:38.828Z,33.90
2019-04-16T09:33:20.281Z,34.30
2019-04-16T09:35:52.035Z,33.90
2019-04-16T09:38:28.587Z,34.10
2019-04-16T09:41:09.278Z,33.70
2019-04-16T09:43:43.790Z,33.80
2019-04-16T09:46:21.070Z,33.70
2019-04-16T09:48:44.656Z,33.40
2019-04-16T09:51:19.032Z,32.60
2019-04-16T09:53:45.095Z,32.20
2019-04-16T09:56:31.388Z,32.80
2019-04-16T09:59:06.831Z,32.80
2019-04-16T10:01:51.559Z,32.70
2019-04-16T10:04:21.923Z,32.20
2019-04-16T10:06:52.885Z,32.40
2019-04-16T10:09:23.415Z,32.20
2019-04-16T10:11:53.343Z,32.50
2019-04-16T10:14:22.692Z,32.10
2019-04-16T10:16:54.286Z,31.90
2019-04-16T10:19:24.834Z,31.80
2019-04-16T10:21:57.078Z,31.90
2019-04-16T10:24:34.194Z,31.60
2019-04-16T10:27:05.226Z,31.50
2019-04-16T10:29:35.016Z,31.00
2019-04-16T10:32:04.551Z,30.80
2019-04-16T10:34:36.333Z,30.50
2019-04-16T10:37:07.404Z,30.50
2019-04-16T10:39:39.642Z,30.40
2019-04-16T10:42:13.357Z,30.50
2019-04-16T10:45:02.092Z,31.00
2019-04-16T10:48:09.275Z,30.40
2019-04-16T10:50:40.428Z,29.90
2019-04-16T10:53:18.675Z,29.80
2019-04-16T10:55:50.852Z,30.00
2019-04-16T10:58:40.788Z,30.10
2019-04-16T11:01:15.535Z,30.50
2019-04-16T11:03:46.654Z,30.00
2019-04-16T11:06:23.992Z,29.70
2019-04-16T11:08:54.747Z,30.30
2019-04-16T11:11:24.525Z,29.80
2019-04-16T11:13:59.992Z,30.00
2019-04-16T11:16:26.396Z,30.30
2019-04-16T11:18:58.334Z,30.50
2019-04-16T11:21:28.403Z,30.50
2019-04-16T11:23:59.173Z,30.20
2019-04-16T11:26:29.331Z,30.40
2019-04-16T11:28:59.536Z,29.70
2019-04-16T11:31:30.073Z,29.30
2019-04-16T11:34:01.022Z,29.40
2019-04-16T11:36:32.078Z,28.70
2019-04-16T11:39:02.558Z,28.90
2019-04-16T11:41:34.123Z,28.80
2019-04-16T11:44:15.247Z,28.40
2019-04-16T11:46:35.283Z,28.40
2019-04-16T11:49:10.313Z,28.30
2019-04-16T11:51:40.910Z,28.50
2019-04-16T11:54:12.324Z,28.40
2019-04-16T11:56:45.850Z,28.60
2019-04-16T11:59:16.798Z,28.90
2019-04-16T12:01:54.314Z,29.20
2019-04-16T12:04:43.719Z,29.90
2019-04-16T12:07:27.129Z,29.90
2019-04-16T12:10:15.348Z,30.00
2019-04-16T12:13:03.955Z,29.30
2019-04-16T12:15:51.227Z,29.40
2019-04-16T12:18:25.045Z,29.30
2019-04-16T12:20:59.245Z,29.00
2019-04-16T12:23:49.038Z,28.80
2019-04-16T12:26:20.210Z,28.70
2019-04-16T12:28:51.751Z,28.40
2019-04-16T12:31:27.994Z,27.70
2019-04-16T12:34:15.909Z,27.40
2019-04-16T12:36:51.156Z,27.20
2019-04-16T12:39:22.283Z,27.10
2019-04-16T12:42:00.194Z,27.20
2019-04-16T12:44:44.531Z,26.80
2019-04-16T12:47:22.186Z,26.70
2019-04-16T12:53:06.981Z,25.80
2019-04-16T12:55:39.924Z,25.10
2019-04-16T12:58:27.335Z,24.90
2019-04-16T13:01:08.283Z,24.70
2019-04-16T13:03:40.773Z,24.60
2019-04-16T13:06:15.999Z,24.60
2019-04-16T13:09:04.795Z,24.50
2019-04-16T13:11:37.123Z,24.20
2019-04-16T13:14:09.838Z,24.10
2019-04-16T13:16:41.477Z,24.60
2019-04-16T13:19:12.581Z,24.40
2019-04-16T13:21:45.057Z,23.90
2019-04-16T13:24:19.218Z,23.60
2019-04-16T13:26:56.783Z,24.00
2019-04-16T13:29:29.567Z,23.70
2019-04-16T13:32:01.887Z,23.40
2019-04-16T13:34:31.988Z,23.20
2019-04-16T13:37:02.820Z,23.30
2019-04-16T13:39:34.261Z,23.20
2019-04-16T13:42:04.198Z,23.40
2019-04-16T13:44:40.689Z,23.40
2019-04-16T13:47:09.717Z,23.80
2019-04-16T13:49:44.950Z,23.30
2019-04-16T13:52:17.122Z,23.20
2019-04-16T13:55:08.248Z,23.10
2019-04-16T13:57:38.510Z,23.30
2019-04-16T14:00:10.418Z,23.40
2019-04-16T14:02:44.579Z,23.90
2019-04-16T14:05:14.210Z,24.30
2019-04-16T14:07:44.178Z,24.10
2019-04-16T14:10:15.716Z,23.80
2019-04-16T14:12:45.558Z,23.60
2019-04-16T14:15:30.645Z,23.40
2019-04-16T14:17:53.090Z,23.80
2019-04-16T14:20:17.751Z,23.80
2019-04-16T14:22:53.278Z,24.10
2019-04-16T14:25:21.620Z,23.80
2019-04-16T14:27:55.042Z,23.30
2019-04-16T14:30:24.433Z,23.90
2019-04-16T14:32:54.953Z,23.90
2019-04-16T14:35:33.487Z,23.70
2019-04-16T14:37:59.089Z,24.10
2019-04-16T14:40:32.194Z,24.10
2019-04-16T14:43:02.484Z,24.00
2019-04-16T14:45:53.419Z,23.50
2019-04-16T14:48:10.986Z,23.40
2019-04-16T14:50:41.783Z,23.50
2019-04-16T14:53:11.441Z,23.60
2019-04-16T14:55:59.781Z,23.80
2019-04-16T14:58:22.435Z,23.20
2019-04-16T15:00:58.086Z,24.40
2019-04-16T15:03:45.933Z,24.30
2019-04-16T15:06:20.334Z,24.50
2019-04-16T15:09:07.833Z,24.50
2019-04-16T15:11:58.329Z,24.80
2019-04-16T15:14:30.869Z,24.90
2019-04-16T15:17:04.898Z,24.90
2019-04-16T15:19:37.061Z,25.00
2019-04-16T15:22:26.425Z,25.30
2019-04-16T15:25:06.670Z,25.60
2019-04-16T15:27:49.401Z,25.90
2019-04-16T15:30:19.640Z,26.50
2019-04-16T15:33:07.291Z,26.10
2019-04-16T15:35:43.720Z,26.40
2019-04-16T15:38:30.847Z,26.20
2019-04-16T15:41:13.219Z,26.30
2019-04-16T15:44:02.613Z,26.30
2019-04-16T15:46:52.065Z,26.40
2019-04-16T15:49:41.609Z,26.50
2019-04-16T15:52:28.670Z,26.80
2019-04-16T15:55:16.351Z,26.90
2019-04-16T15:57:47.513Z,27.10
2019-04-16T16:00:35.380Z,27.30
2019-04-16T16:03:22.690Z,27.40
2019-04-16T16:06:10.391Z,27.20
2019-04-16T16:08:47.686Z,27.30
2019-04-16T16:11:23.723Z,27.50
2019-04-16T16:14:05.349Z,27.60
2019-04-16T16:16:42.010Z,27.80
2019-04-16T16:19:10.917Z,27.50
2019-04-16T16:21:38.232Z,27.40
2019-04-16T16:24:08.429Z,27.70
2019-04-16T16:26:38.010Z,27.80
2019-04-16T16:29:07.461Z,28.00
2019-04-16T16:31:36.951Z,28.20
2019-04-16T16:34:08.910Z,28.30
2019-04-16T16:36:40.490Z,28.10
2019-04-16T16:39:08.610Z,28.00
2019-04-16T16:41:39.669Z,28.20
2019-04-16T16:44:09.086Z,28.10
2019-04-16T16:46:56.099Z,28.10
2019-04-16T16:49:13.784Z,28.40
2019-04-16T16:51:46.029Z,28.80
2019-04-16T16:54:21.799Z,29.00
2019-04-16T16:57:03.580Z,29.30
2019-04-16T16:59:37.291Z,29.60
2019-04-16T17:02:14.132Z,29.70
2019-04-16T17:04:47.955Z,30.00
2019-04-16T17:07:18.094Z,30.40
2019-04-16T17:09:48.773Z,30.70
2019-04-16T17:12:18.445Z,30.90
2019-04-16T17:14:48.602Z,31.00
2019-04-16T17:17:19.432Z,31.50
2019-04-16T17:19:50.897Z,32.30
2019-04-16T17:22:22.091Z,32.80
2019-04-16T17:28:06.554Z,33.60
2019-04-16T17:30:37.871Z,34.00
2019-04-16T17:33:08.393Z,34.40
2019-04-16T17:35:39.650Z,34.60
2019-04-16T17:38:12.117Z,34.70
2019-04-16T17:40:44.581Z,35.10
2019-04-16T17:43:17.066Z,35.50
2019-04-16T17:46:01.105Z,35.80
2019-04-16T17:48:33.400Z,36.10
2019-04-16T17:51:07.706Z,36.50
2019-04-16T17:53:49.115Z,36.80
2019-04-16T17:56:36.299Z,36.90
2019-04-16T17:59:13.353Z,36.80
2019-04-16T18:02:01.209Z,36.70
2019-04-16T18:04:39.209Z,36.70
2019-04-16T18:07:15.358Z,36.70
2019-04-16T18:09:46.436Z,36.70
2019-04-16T18:12:26.852Z,36.80
2019-04-16T18:14:58.913Z,36.80
2019-04-16T18:17:46.025Z,36.80
2019-04-16T18:20:05.274Z,36.90
2019-04-16T18:22:45.010Z,37.00
2019-04-16T18:25:29.626Z,37.30
2019-04-16T18:28:08.396Z,37.30
2019-04-16T18:30:43.098Z,37.20
2019-04-16T18:33:20.702Z,37.10
2019-04-16T18:36:02.487Z,37.20
2019-04-16T18:38:50.728Z,37.30
2019-04-16T18:41:27.570Z,37.50
2019-04-16T18:44:13.531Z,37.60
2019-04-16T18:46:50.758Z,37.90
2019-04-16T18:49:25.658Z,37.90
2019-04-16T18:51:55.863Z,38.00
2019-04-16T18:54:25.388Z,38.20
2019-04-16T18:56:54.837Z,38.30
2019-04-16T18:59:24.346Z,38.40
2019-04-16T19:01:55.407Z,38.40
2019-04-16T19:04:26.073Z,38.50
2019-04-16T19:06:56.846Z,38.50
2019-04-16T19:09:27.325Z,38.50
2019-04-16T19:11:58.521Z,38.50
2019-04-16T19:14:28.063Z,38.50
2019-04-16T19:16:59.182Z,38.60
2019-04-16T19:19:29.081Z,38.70
2019-04-16T19:21:59.848Z,38.60
2019-04-16T19:24:29.457Z,38.70
2019-04-16T19:26:58.872Z,38.90
2019-04-16T19:29:28.917Z,38.90
2019-04-16T19:32:00.311Z,38.90
2019-04-16T19:34:30.007Z,39.30
2019-04-16T19:37:00.999Z,39.30
2019-04-16T19:39:33.815Z,39.30
2019-04-16T19:42:05.501Z,39.20
2019-04-16T19:44:39.729Z,39.30
2019-04-16T19:47:08.477Z,39.40
2019-04-16T19:49:40.226Z,39.50
2019-04-16T19:52:10.866Z,39.60
2019-04-16T19:54:40.549Z,39.40
2019-04-16T19:57:10.744Z,39.50
2019-04-16T19:59:46.365Z,39.60
2019-04-16T20:02:14.537Z,39.60
2019-04-16T20:04:45.080Z,39.50
2019-04-16T20:07:16.493Z,39.70
2019-04-16T20:09:48.194Z,39.70
2019-04-16T20:12:18.904Z,39.70
2019-04-16T20:14:48.305Z,39.80
2019-04-16T20:17:18.031Z,39.90
2019-04-16T20:20:00.270Z,39.80
2019-04-16T20:22:30.156Z,39.80
2019-04-16T20:25:01.242Z,40.10
2019-04-16T20:27:30.834Z,40.00
2019-04-16T20:30:00.252Z,40.00
2019-04-16T20:32:30.990Z,40.20
2019-04-16T20:35:01.319Z,40.00
2019-04-16T20:37:30.910Z,40.10
2019-04-16T20:40:00.284Z,40.10
2019-04-16T20:42:29.691Z,40.20
2019-04-16T20:44:59.067Z,40.50
2019-04-16T20:47:28.492Z,40.50
2019-04-16T20:49:58.033Z,40.80
2019-04-16T20:52:27.362Z,41.20
2019-04-16T20:54:56.895Z,41.60
2019-04-16T20:57:26.490Z,41.90
2019-04-16T20:59:56.912Z,42.10
2019-04-16T21:02:27.927Z,42.30
2019-04-16T21:05:22.105Z,42.40
2019-04-16T21:07:43.803Z,42.50
2019-04-16T21:10:12.042Z,42.50
2019-04-16T21:12:45.071Z,42.30
2019-04-16T21:15:12.393Z,42.20
2019-04-16T21:17:41.838Z,42.00
2019-04-16T21:20:11.200Z,41.90
2019-04-16T21:22:40.579Z,41.90
2019-04-16T21:25:13.190Z,41.70
2019-04-16T21:27:42.683Z,41.60
2019-04-16T21:30:13.242Z,41.60
2019-04-16T21:32:48.735Z,41.50
2019-04-16T21:35:19.968Z,41.60
2019-04-16T21:38:09.219Z,41.60
2019-04-16T21:40:38.599Z,41.70
2019-04-16T21:43:08.856Z,41.80
2019-04-16T21:45:38.367Z,41.90
2019-04-16T21:48:07.829Z,42.00
2019-04-16T21:50:37.275Z,42.30
2019-04-16T21:53:06.653Z,42.40
2019-04-16T21:55:36.209Z,42.70
2019-04-16T21:58:05.940Z,42.90
2019-04-16T22:00:39.666Z,43.10
2019-04-16T22:03:12.320Z,43.40
2019-04-16T22:05:41.775Z,43.70
2019-04-16T22:08:11.204Z,43.90
2019-04-16T22:10:40.591Z,44.50
2019-04-16T22:13:10.937Z,44.90
2019-04-16T22:15:40.373Z,45.20
2019-04-16T22:18:10.077Z,45.40
2019-04-16T22:20:39.505Z,45.80
2019-04-16T22:23:09.137Z,46.10
2019-04-16T22:25:38.525Z,46.50
2019-04-16T22:28:11.385Z,46.80
2019-04-16T22:30:38.909Z,47.10
2019-04-16T22:33:09.359Z,47.30
2019-04-16T22:35:38.720Z,47.50
2019-04-16T22:38:13.517Z,47.90
2019-04-16T22:40:51.684Z,48.10
2019-04-16T22:43:21.938Z,48.40
2019-04-16T22:45:58.955Z,48.70
2019-04-16T22:48:28.337Z,48.90
2019-04-16T22:50:57.718Z,49.20
2019-04-16T22:53:27.076Z,49.50
2019-04-16T22:55:57.680Z,49.80
2019-04-16T22:58:29.045Z,50.20
2019-04-16T23:01:00.066Z,50.60
2019-04-16T23:03:29.464Z,50.90
2019-04-16T23:06:00.893Z,51.20
2019-04-16T23:08:29.888Z,51.40
2019-04-16T23:10:59.267Z,51.70
2019-04-16T23:13:32.239Z,52.10
2019-04-16T23:15:59.732Z,52.40
2019-04-16T23:18:29.092Z,52.80
2019-04-16T23:20:58.472Z,53.20
2019-04-16T23:23:27.855Z,53.40
2019-04-16T23:25:59.520Z,53.70
2019-04-16T23:28:28.215Z,54.00
2019-04-16T23:30:57.598Z,54.40
2019-04-16T23:33:27.065Z,54.80
2019-04-16T23:35:58.549Z,55.10
2019-04-16T23:38:31.105Z,55.30
2019-04-16T23:40:58.960Z,56.20
2019-04-16T23:43:44.733Z,55.90
2019-04-16T23:46:27.853Z,56.30
2019-04-16T23:49:05.555Z,56.70
2019-04-16T23:51:45.725Z,57.10
2019-04-16T23:54:19.468Z,57.50
2019-04-16T23:56:53.902Z,57.90
2019-04-16T23:59:32.663Z,58.20
